Time;durP1;ratioP1;P1;durP2;ratioP2;P2;SDS_P1;SDS_P2;PMS_P1;PMS_P2;Temp;Humidity;BMP_temperature;BMP_pressure;BME280_temperature;BME280_humidity;BME280_pressure;Samples;Min_cycle;Max_cycle;Signal;HPM_P1;HPM_P2
2022/04/20 00:01:27;;;;;;;2.50;2.30;;;;;;;;;;5052285;28;20083;-90
2022/04/20 00:03:54;;;;;;;3.83;2.47;;;;;;;;;;5052355;28;20056;-91
2022/04/20 00:06:21;;;;;;;4.00;2.70;;;;;;;;;;5052085;28;20128;-90
2022/04/20 00:08:48;;;;;;;9.45;2.72;;;;;;;;;;5052730;28;20131;-90
2022/04/20 00:11:16;;;;;;;4.10;2.50;;;;;;;;;;5053074;28;20049;-90
2022/04/20 00:13:43;;;;;;;3.25;2.65;;;;;;;;;;5053027;28;20481;-91
2022/04/20 00:16:10;;;;;;;6.00;2.65;;;;;;;;;;5055200;28;20123;-91
2022/04/20 00:18:37;;;;;;;4.22;2.65;;;;;;;;;;5056760;28;20095;-91
2022/04/20 00:21:04;;;;;;;2.83;2.40;;;;;;;;;;5056479;28;20198;-91
2022/04/20 00:23:31;;;;;;;2.97;2.75;;;;;;;;;;5055451;28;20514;-90
2022/04/20 00:25:59;;;;;;;5.35;2.70;;;;;;;;;;5055458;28;20049;-91
2022/04/20 00:28:26;;;;;;;3.00;2.63;;;;;;;;;;5056593;28;20084;-91
2022/04/20 00:30:53;;;;;;;6.30;2.60;;;;;;;;;;5055745;28;20098;-91
2022/04/20 00:33:21;;;;;;;3.50;2.55;;;;;;;;;;5056396;28;20048;-91
2022/04/20 00:35:50;;;;;;;3.13;2.60;;;;;;;;;;5055148;28;20508;-91
2022/04/20 00:38:18;;;;;;;5.85;2.60;;;;;;;;;;5056526;28;20061;-90
2022/04/20 00:40:49;;;;;;;2.95;2.75;;;;;;;;;;5055343;28;20049;-90
2022/04/20 00:43:16;;;;;;;7.20;2.80;;;;;;;;;;5056313;28;20049;-90
2022/04/20 00:45:44;;;;;;;2.88;2.50;;;;;;;;;;5056511;28;20060;-90
2022/04/20 00:48:11;;;;;;;4.00;2.08;;;;;;;;;;5055909;28;20079;-90
2022/04/20 00:50:39;;;;;;;2.70;2.50;;;;;;;;;;5055143;28;20076;-91
2022/04/20 00:53:06;;;;;;;6.43;2.40;;;;;;;;;;5055028;28;20490;-91
2022/04/20 00:55:34;;;;;;;5.63;3.00;;;;;;;;;;5056061;28;20508;-90
2022/04/20 00:58:01;;;;;;;3.50;2.65;;;;;;;;;;5055076;28;20067;-91
2022/04/20 01:00:29;;;;;;;7.82;2.80;;;;;;;;;;5055225;28;20132;-90
2022/04/20 01:02:57;;;;;;;3.08;2.80;;;;;;;;;;5055646;28;20075;-91
2022/04/20 01:05:24;;;;;;;3.72;2.83;;;;;;;;;;5055888;28;20079;-90
2022/04/20 01:07:52;;;;;;;5.10;3.00;;;;;;;;;;5056376;28;20052;-91
2022/04/20 01:10:19;;;;;;;2.90;2.67;;;;;;;;;;5054648;28;20140;-90
2022/04/20 01:12:47;;;;;;;3.33;2.80;;;;;;;;;;5054800;28;20160;-91
2022/04/20 01:15:14;;;;;;;4.82;2.95;;;;;;;;;;5055279;28;20061;-90
2022/04/20 01:17:42;;;;;;;3.47;3.15;;;;;;;;;;5054446;28;20045;-91
2022/04/20 01:20:16;;;;;;;3.92;2.83;;;;;;;;;;5054559;28;20084;-91
2022/04/20 01:22:43;;;;;;;3.97;2.53;;;;;;;;;;5054817;28;20045;-90
2022/04/20 01:25:11;;;;;;;4.88;2.70;;;;;;;;;;5054241;28;20079;-90
2022/04/20 01:27:39;;;;;;;3.33;2.90;;;;;;;;;;5055214;28;20412;-90
2022/04/20 01:30:07;;;;;;;5.00;2.60;;;;;;;;;;5055614;28;20135;-90
2022/04/20 01:32:34;;;;;;;3.08;2.78;;;;;;;;;;5054641;28;20049;-91
2022/04/20 01:35:02;;;;;;;10.73;3.35;;;;;;;;;;5054311;28;20055;-90
2022/04/20 01:37:30;;;;;;;3.17;2.83;;;;;;;;;;5057612;28;20048;-89
2022/04/20 01:39:57;;;;;;;2.90;2.70;;;;;;;;;;5055500;28;20080;-90
2022/04/20 01:42:24;;;;;;;9.40;3.08;;;;;;;;;;5054443;28;20048;-90
2022/04/20 01:44:51;;;;;;;5.60;2.88;;;;;;;;;;5053964;28;20077;-90
2022/04/20 01:47:18;;;;;;;2.70;2.47;;;;;;;;;;5055099;28;20144;-91
2022/04/20 01:49:45;;;;;;;3.08;2.78;;;;;;;;;;5054337;28;20079;-90
2022/04/20 01:52:13;;;;;;;5.10;3.10;;;;;;;;;;5054041;28;20140;-91
2022/04/20 01:54:40;;;;;;;3.92;2.85;;;;;;;;;;5054036;28;20147;-90
2022/04/20 01:57:07;;;;;;;3.08;2.60;;;;;;;;;;5053723;28;20072;-91
2022/04/20 01:59:34;;;;;;;3.15;2.80;;;;;;;;;;5054954;28;20136;-90
2022/04/20 02:04:47;;;;;;;3.10;2.80;;;;;;;;;;5054686;28;20049;-90
2022/04/20 02:07:15;;;;;;;3.13;2.65;;;;;;;;;;5053336;28;20136;-90
2022/04/20 02:09:42;;;;;;;5.55;3.00;;;;;;;;;;5054378;28;20509;-90
2022/04/20 02:12:09;;;;;;;4.70;3.30;;;;;;;;;;5053341;28;20085;-90
2022/04/20 02:14:36;;;;;;;3.60;3.30;;;;;;;;;;5053211;28;20078;-90
2022/04/20 02:17:05;;;;;;;5.18;3.38;;;;;;;;;;5054425;28;20068;-90
2022/04/20 02:19:32;;;;;;;3.45;2.85;;;;;;;;;;5054340;28;20397;-91
2022/04/20 02:21:59;;;;;;;4.63;3.40;;;;;;;;;;5052978;28;20511;-90
2022/04/20 02:24:26;;;;;;;3.65;3.30;;;;;;;;;;5053522;28;20052;-91
2022/04/20 02:26:54;;;;;;;3.60;3.20;;;;;;;;;;5053079;28;20139;-91
2022/04/20 02:29:21;;;;;;;4.53;3.15;;;;;;;;;;5053925;28;20049;-91
2022/04/20 02:31:48;;;;;;;5.32;3.00;;;;;;;;;;5053451;28;20087;-91
2022/04/20 02:34:16;;;;;;;5.15;3.20;;;;;;;;;;5053843;28;20139;-90
2022/04/20 02:36:43;;;;;;;3.53;3.22;;;;;;;;;;5059273;28;20053;-91
2022/04/20 02:39:10;;;;;;;3.50;3.20;;;;;;;;;;5052821;28;20080;-91
2022/04/20 02:41:37;;;;;;;4.10;3.70;;;;;;;;;;5053786;28;20132;-91
2022/04/20 02:44:05;;;;;;;6.25;3.90;;;;;;;;;;5052933;28;20132;-91
2022/04/20 02:46:33;;;;;;;4.68;3.95;;;;;;;;;;5052973;28;20531;-90
2022/04/20 02:49:00;;;;;;;5.10;3.72;;;;;;;;;;5052932;28;20049;-91
2022/04/20 02:51:27;;;;;;;4.57;3.40;;;;;;;;;;5052789;28;20133;-90
2022/04/20 02:53:55;;;;;;;4.53;3.35;;;;;;;;;;5052664;28;20083;-92
2022/04/20 02:56:22;;;;;;;3.90;3.50;;;;;;;;;;5052692;28;20413;-92
2022/04/20 02:58:50;;;;;;;3.50;3.20;;;;;;;;;;5052914;28;20242;-92
2022/04/20 03:01:17;;;;;;;4.20;3.47;;;;;;;;;;5052513;28;20053;-92
2022/04/20 03:03:44;;;;;;;5.75;3.60;;;;;;;;;;5052423;28;20048;-92
2022/04/20 03:06:11;;;;;;;6.65;3.58;;;;;;;;;;5052745;28;20056;-92
2022/04/20 03:08:39;;;;;;;4.43;3.45;;;;;;;;;;5052695;28;20045;-92
2022/04/20 03:11:06;;;;;;;7.55;3.55;;;;;;;;;;5052697;28;20084;-92
2022/04/20 03:13:33;;;;;;;4.25;3.45;;;;;;;;;;5052721;28;20072;-92
2022/04/20 03:16:01;;;;;;;6.10;3.40;;;;;;;;;;5052278;28;20135;-92
2022/04/20 03:18:32;;;;;;;5.68;3.00;;;;;;;;;;5052364;28;20406;-93
2022/04/20 03:21:01;;;;;;;3.35;3.05;;;;;;;;;;5052271;28;20139;-93
2022/04/20 03:23:29;;;;;;;8.48;3.30;;;;;;;;;;5052491;28;20083;-91
2022/04/20 03:25:57;;;;;;;6.20;3.45;;;;;;;;;;5052328;28;20095;-92
2022/04/20 03:28:24;;;;;;;6.97;3.28;;;;;;;;;;5052280;28;20049;-92
2022/04/20 03:30:51;;;;;;;4.15;3.70;;;;;;;;;;5051993;28;20493;-92
2022/04/20 03:33:21;;;;;;;4.35;3.78;;;;;;;;;;5052614;28;20053;-92
2022/04/20 03:35:49;;;;;;;5.10;3.55;;;;;;;;;;5053221;28;20045;-92
2022/04/20 03:38:16;;;;;;;4.80;3.40;;;;;;;;;;5055226;28;20574;-92
2022/04/20 03:40:45;;;;;;;6.82;3.92;;;;;;;;;;5054469;28;20069;-92
2022/04/20 03:43:13;;;;;;;6.28;3.38;;;;;;;;;;5052120;28;20087;-92
2022/04/20 03:45:41;;;;;;;8.13;3.45;;;;;;;;;;5051720;28;20084;-93
2022/04/20 03:48:09;;;;;;;4.53;3.30;;;;;;;;;;5052458;28;20102;-92
2022/04/20 03:50:36;;;;;;;4.38;3.45;;;;;;;;;;5056353;28;20139;-92
2022/04/20 03:53:04;;;;;;;5.00;3.72;;;;;;;;;;5056368;28;20136;-93
2022/04/20 03:55:31;;;;;;;4.03;3.50;;;;;;;;;;5056020;28;20076;-93
2022/04/20 03:57:58;;;;;;;7.45;3.67;;;;;;;;;;5055931;28;20489;-93
2022/04/20 04:00:25;;;;;;;4.40;3.60;;;;;;;;;;5055681;28;20048;-93
2022/04/20 04:02:53;;;;;;;5.57;3.90;;;;;;;;;;5056138;28;20091;-92
2022/04/20 04:05:20;;;;;;;5.38;3.88;;;;;;;;;;5056039;28;20137;-93
2022/04/20 04:07:47;;;;;;;9.70;4.32;;;;;;;;;;5055453;28;20489;-93
2022/04/20 04:10:15;;;;;;;12.27;4.60;;;;;;;;;;5055571;28;20049;-93
2022/04/20 04:12:42;;;;;;;9.30;3.90;;;;;;;;;;5055787;28;20143;-93
2022/04/20 04:15:10;;;;;;;8.52;4.07;;;;;;;;;;5055308;28;20170;-94
2022/04/20 04:17:37;;;;;;;5.35;4.07;;;;;;;;;;5055932;28;20152;-93
2022/04/20 04:20:05;;;;;;;13.63;6.57;;;;;;;;;;5055842;28;20079;-93
2022/04/20 04:22:32;;;;;;;13.93;6.60;;;;;;;;;;5055343;28;20140;-93
2022/04/20 04:24:59;;;;;;;9.68;5.32;;;;;;;;;;5055474;28;20057;-93
2022/04/20 04:27:27;;;;;;;6.65;5.00;;;;;;;;;;5055629;28;20084;-93
2022/04/20 04:29:55;;;;;;;8.90;5.00;;;;;;;;;;5055430;28;20456;-93
2022/04/20 04:32:22;;;;;;;5.88;4.85;;;;;;;;;;5055625;28;20087;-93
2022/04/20 04:34:49;;;;;;;6.88;4.47;;;;;;;;;;5055316;28;20375;-92
2022/04/20 04:37:17;;;;;;;10.88;5.22;;;;;;;;;;5057060;28;20056;-92
2022/04/20 04:39:44;;;;;;;13.18;5.53;;;;;;;;;;5058471;28;20136;-92
2022/04/20 04:42:11;;;;;;;8.60;5.00;;;;;;;;;;5056334;28;20049;-93
2022/04/20 04:44:39;;;;;;;7.10;5.22;;;;;;;;;;5055477;28;20061;-92
2022/04/20 04:49:52;;;;;;;7.97;5.28;;;;;;;;;;5055990;28;20485;-92
2022/04/20 04:52:19;;;;;;;5.22;4.40;;;;;;;;;;5054931;28;20072;-92
2022/04/20 04:54:46;;;;;;;6.03;5.35;;;;;;;;;;5056138;28;20468;-92
2022/04/20 04:57:14;;;;;;;13.50;7.38;;;;;;;;;;5055396;28;20084;-93
2022/04/20 04:59:41;;;;;;;13.85;9.18;;;;;;;;;;5054701;28;20073;-93
2022/04/20 05:02:09;;;;;;;17.75;10.15;;;;;;;;;;5054552;28;20155;-93
2022/04/20 05:04:37;;;;;;;10.52;8.38;;;;;;;;;;5054618;28;20090;-92
2022/04/20 05:07:05;;;;;;;10.98;7.50;;;;;;;;;;5054766;28;20471;-92
2022/04/20 05:09:32;;;;;;;7.82;6.70;;;;;;;;;;5054942;28;20087;-92
2022/04/20 05:12:01;;;;;;;8.23;6.05;;;;;;;;;;5054534;28;20167;-93
2022/04/20 05:14:28;;;;;;;8.40;4.60;;;;;;;;;;5054718;28;20059;-92
2022/04/20 05:16:56;;;;;;;4.90;4.40;;;;;;;;;;5054309;28;20136;-92
2022/04/20 05:19:23;;;;;;;8.30;4.78;;;;;;;;;;5054546;28;20052;-92
2022/04/20 05:21:50;;;;;;;6.00;4.35;;;;;;;;;;5054297;28;20498;-93
2022/04/20 05:24:18;;;;;;;4.05;3.65;;;;;;;;;;5054241;28;20048;-92
2022/04/20 05:26:45;;;;;;;6.78;3.72;;;;;;;;;;5054764;28;20456;-91
2022/04/20 05:29:12;;;;;;;3.65;3.15;;;;;;;;;;5054574;28;20045;-91
2022/04/20 05:31:39;;;;;;;8.82;4.72;;;;;;;;;;5054147;28;20053;-92
2022/04/20 05:34:07;;;;;;;26.33;14.00;;;;;;;;;;5054177;28;20118;-92
2022/04/20 05:42:06;;;;;;;9.60;4.97;;;;;;;;;;5054988;28;20060;-90
2022/04/20 05:44:33;;;;;;;18.42;13.35;;;;;;;;;;5053840;28;20150;-91
2022/04/20 05:47:00;;;;;;;13.98;7.53;;;;;;;;;;5053871;28;20080;-92
2022/04/20 05:49:28;;;;;;;9.43;6.68;;;;;;;;;;5055150;28;20144;-92
2022/04/20 05:51:55;;;;;;;5.05;3.30;;;;;;;;;;5054302;28;20055;-92
2022/04/20 05:54:23;;;;;;;4.43;3.10;;;;;;;;;;5053589;28;20466;-92
2022/04/20 05:56:51;;;;;;;9.27;3.70;;;;;;;;;;5054722;28;20061;-91
2022/04/20 05:59:18;;;;;;;10.27;3.55;;;;;;;;;;5054175;28;20143;-92
2022/04/20 06:01:45;;;;;;;7.40;3.80;;;;;;;;;;5053937;28;20084;-92
2022/04/20 06:04:12;;;;;;;5.63;3.33;;;;;;;;;;5054682;28;20049;-92
2022/04/20 06:06:40;;;;;;;9.70;4.78;;;;;;;;;;5053999;28;20099;-93
2022/04/20 06:09:07;;;;;;;7.20;5.93;;;;;;;;;;5053931;28;20080;-92
2022/04/20 06:11:34;;;;;;;5.88;3.03;;;;;;;;;;5057337;28;20080;-92
2022/04/20 06:14:06;;;;;;;4.65;2.50;;;;;;;;;;5056076;28;20057;-93
2022/04/20 06:16:33;;;;;;;11.32;4.00;;;;;;;;;;5055087;28;20080;-93
2022/04/20 06:19:02;;;;;;;3.47;2.58;;;;;;;;;;5056461;28;20053;-92
2022/04/20 06:21:29;;;;;;;6.47;2.38;;;;;;;;;;5054580;28;20071;-93
2022/04/20 06:23:58;;;;;;;5.22;2.45;;;;;;;;;;5053624;28;20474;-92
2022/04/20 06:26:25;;;;;;;4.20;2.70;;;;;;;;;;5053370;28;20072;-92
2022/04/20 06:28:52;;;;;;;9.32;3.67;;;;;;;;;;5053440;28;20047;-90
2022/04/20 06:31:20;;;;;;;5.05;2.42;;;;;;;;;;5053707;28;20049;-91
2022/04/20 06:33:47;;;;;;;8.02;3.35;;;;;;;;;;5053297;28;20139;-90
2022/04/20 06:36:14;;;;;;;18.00;5.22;;;;;;;;;;5053039;28;20498;-91
2022/04/20 06:38:41;;;;;;;12.93;5.43;;;;;;;;;;5054103;28;20041;-91
2022/04/20 06:41:08;;;;;;;43.03;13.75;;;;;;;;;;5054259;28;20055;-90
2022/04/20 06:43:35;;;;;;;25.35;11.32;;;;;;;;;;5053329;28;20059;-90
2022/04/20 06:46:03;;;;;;;49.63;30.08;;;;;;;;;;5053035;28;20128;-90
2022/04/20 06:48:30;;;;;;;45.63;19.30;;;;;;;;;;5053310;28;20135;-91
2022/04/20 06:50:57;;;;;;;24.50;8.85;;;;;;;;;;5053040;28;20091;-92
2022/04/20 06:58:56;;;;;;;35.88;9.45;;;;;;;;;;5054037;28;20478;-92
2022/04/20 07:01:23;;;;;;;51.65;20.75;;;;;;;;;;5052682;28;20076;-91
2022/04/20 07:03:51;;;;;;;114.95;49.45;;;;;;;;;;5054482;28;20095;-91
2022/04/20 07:06:18;;;;;;;69.05;27.65;;;;;;;;;;5052711;28;20053;-92
2022/04/20 07:08:45;;;;;;;28.02;7.40;;;;;;;;;;5053094;28;20141;-92
2022/04/20 07:11:13;;;;;;;21.73;5.40;;;;;;;;;;5053556;28;20076;-93
2022/04/20 07:13:40;;;;;;;94.47;43.72;;;;;;;;;;5052445;28;20572;-91
2022/04/20 07:16:07;;;;;;;25.20;10.40;;;;;;;;;;5052042;28;20151;-91
2022/04/20 07:18:35;;;;;;;31.83;13.98;;;;;;;;;;5053636;28;20053;-92
2022/04/20 07:21:03;;;;;;;52.80;24.48;;;;;;;;;;5052864;28;20076;-91
2022/04/20 07:23:33;;;;;;;13.38;3.05;;;;;;;;;;5053721;28;20048;-92
2022/04/20 07:26:00;;;;;;;66.05;30.65;;;;;;;;;;5055096;28;20128;-92
2022/04/20 07:28:28;;;;;;;26.58;12.20;;;;;;;;;;5053471;28;20399;-92
2022/04/20 07:30:55;;;;;;;11.77;3.58;;;;;;;;;;5051477;28;20140;-92
2022/04/20 07:33:24;;;;;;;20.05;9.18;;;;;;;;;;5053072;28;20045;-91
2022/04/20 07:35:51;;;;;;;15.77;3.97;;;;;;;;;;5052522;28;20114;-90
2022/04/20 07:38:18;;;;;;;35.50;23.98;;;;;;;;;;5068303;28;20109;-90
2022/04/20 07:40:51;;;;;;;45.03;30.10;;;;;;;;;;5061655;28;20052;-90
2022/04/20 07:43:18;;;;;;;11.23;6.07;;;;;;;;;;5052230;28;20056;-90
2022/04/20 07:45:45;;;;;;;9.90;2.97;;;;;;;;;;5053009;28;20228;-90
2022/04/20 07:48:12;;;;;;;7.60;3.60;;;;;;;;;;5051813;28;20405;-90
2022/04/20 07:50:39;;;;;;;17.10;7.57;;;;;;;;;;5051720;28;20489;-91
2022/04/20 07:53:07;;;;;;;14.32;8.20;;;;;;;;;;5052791;28;20112;-91
2022/04/20 07:55:34;;;;;;;4.90;2.72;;;;;;;;;;5051941;28;20508;-90
2022/04/20 07:58:03;;;;;;;8.98;2.40;;;;;;;;;;5052999;28;20112;-91
2022/04/20 08:00:31;;;;;;;3.38;2.38;;;;;;;;;;5052255;28;20087;-91
2022/04/20 08:03:12;;;;;;;5.13;2.53;;;;;;;;;;5053470;28;20091;-90
2022/04/20 08:05:39;;;;;;;7.25;2.60;;;;;;;;;;5051990;28;20056;-90
2022/04/20 08:08:07;;;;;;;2.55;2.33;;;;;;;;;;5054248;28;20223;-91
2022/04/20 08:10:35;;;;;;;4.40;2.10;;;;;;;;;;5052104;28;20448;-90
2022/04/20 08:14:09;;;;;;;3.25;2.63;;;;;;;;;;5052077;28;20052;-91
2022/04/20 08:15:50;;;;;;;8.55;3.92;;;;;;;;;;5052618;28;20064;-91
2022/04/20 08:18:17;;;;;;;4.82;2.50;;;;;;;;;;5051820;28;20084;-89
2022/04/20 08:20:44;;;;;;;3.42;2.58;;;;;;;;;;5052616;28;20137;-91
2022/04/20 08:23:11;;;;;;;4.85;2.40;;;;;;;;;;5051971;28;20084;-90
2022/04/20 08:25:42;;;;;;;5.72;2.45;;;;;;;;;;5045524;28;20068;-89
2022/04/20 08:28:10;;;;;;;3.33;2.65;;;;;;;;;;5044075;28;20087;-91
2022/04/20 08:30:38;;;;;;;2.90;2.67;;;;;;;;;;5050482;28;20051;-91
2022/04/20 08:33:07;;;;;;;2.45;2.25;;;;;;;;;;5042112;28;20061;-91
2022/04/20 08:35:35;;;;;;;4.57;2.47;;;;;;;;;;5032273;28;20045;-90
2022/04/20 08:38:02;;;;;;;7.85;2.95;;;;;;;;;;5034753;28;20566;-91
2022/04/20 08:40:30;;;;;;;4.05;2.65;;;;;;;;;;5037837;28;20113;-90
2022/04/20 08:43:00;;;;;;;3.72;2.22;;;;;;;;;;5037908;28;20109;-92
2022/04/20 08:45:28;;;;;;;4.97;2.80;;;;;;;;;;5036382;28;20052;-89
2022/04/20 08:47:56;;;;;;;4.55;2.88;;;;;;;;;;5036330;28;20422;-91
2022/04/20 08:50:25;;;;;;;2.88;2.35;;;;;;;;;;5036107;28;20088;-93
2022/04/20 08:52:54;;;;;;;3.13;2.40;;;;;;;;;;5034731;28;20108;-89
2022/04/20 08:55:21;;;;;;;3.42;1.92;;;;;;;;;;5036481;28;20129;-90
2022/04/20 08:57:52;;;;;;;4.63;2.47;;;;;;;;;;5035007;28;20091;-92
2022/04/20 09:00:25;;;;;;;5.60;2.35;;;;;;;;;;5036407;28;20069;-93
2022/04/20 09:02:55;;;;;;;5.38;2.30;;;;;;;;;;5036244;28;20054;-90
2022/04/20 09:05:24;;;;;;;3.42;2.38;;;;;;;;;;5037106;28;20056;-91
2022/04/20 09:07:52;;;;;;;5.72;2.40;;;;;;;;;;5035734;28;20067;-90
2022/04/20 09:10:19;;;;;;;3.53;2.25;;;;;;;;;;5035958;28;20053;-92
2022/04/20 09:12:47;;;;;;;6.68;2.30;;;;;;;;;;5036658;28;20045;-92
2022/04/20 09:15:28;;;;;;;3.38;2.47;;;;;;;;;;5036332;28;20056;-92
2022/04/20 09:17:56;;;;;;;5.13;2.33;;;;;;;;;;5037396;28;20048;-88
2022/04/20 09:20:23;;;;;;;5.25;2.20;;;;;;;;;;5035976;28;20050;-91
2022/04/20 09:23:10;;;;;;;2.70;2.05;;;;;;;;;;5035461;28;20129;-91
2022/04/20 09:25:51;;;;;;;6.55;2.40;;;;;;;;;;5034910;28;20084;-93
2022/04/20 09:28:18;;;;;;;3.15;2.13;;;;;;;;;;5036350;28;20053;-93
2022/04/20 09:30:49;;;;;;;6.90;2.22;;;;;;;;;;5035552;28;20080;-92
2022/04/20 09:33:16;;;;;;;5.38;2.40;;;;;;;;;;5035241;28;20129;-93
2022/04/20 09:35:45;;;;;;;7.82;2.67;;;;;;;;;;5037378;28;20124;-89
2022/04/20 09:38:13;;;;;;;3.72;1.80;;;;;;;;;;5035888;28;20116;-92
2022/04/20 09:40:40;;;;;;;3.67;2.10;;;;;;;;;;5035634;28;20133;-93
2022/04/20 09:43:16;;;;;;;5.00;2.03;;;;;;;;;;5034919;28;20061;-91
2022/04/20 09:45:43;;;;;;;3.28;1.80;;;;;;;;;;5036175;28;20458;-91
2022/04/20 09:51:11;;;;;;;4.10;2.05;;;;;;;;;;5035298;28;20056;-91
2022/04/20 09:53:38;;;;;;;2.50;2.25;;;;;;;;;;5036062;28;20049;-91
2022/04/20 09:56:22;;;;;;;2.75;1.98;;;;;;;;;;5035002;28;20129;-93
2022/04/20 09:58:59;;;;;;;4.25;2.10;;;;;;;;;;5037526;28;20085;-92
2022/04/20 10:01:34;;;;;;;3.00;1.90;;;;;;;;;;5035573;28;20100;-90
2022/04/20 10:04:04;;;;;;;3.33;2.22;;;;;;;;;;5033236;28;20141;-92
2022/04/20 10:06:31;;;;;;;4.40;2.15;;;;;;;;;;5033761;28;20065;-88
2022/04/20 10:08:58;;;;;;;2.55;1.90;;;;;;;;;;5033179;28;20077;-89
2022/04/20 10:11:26;;;;;;;4.47;2.40;;;;;;;;;;5033543;28;20110;-93
2022/04/20 10:16:54;;;;;;;3.63;1.80;;;;;;;;;;5034200;28;20103;-87
2022/04/20 10:19:28;;;;;;;2.53;1.80;;;;;;;;;;5034473;28;20053;-90
2022/04/20 10:21:56;;;;;;;4.53;1.75;;;;;;;;;;5034927;28;20050;-91
2022/04/20 10:24:29;;;;;;;7.03;2.10;;;;;;;;;;5045691;28;20061;-90
2022/04/20 10:27:06;;;;;;;1.87;1.67;;;;;;;;;;5039490;28;20068;-90
2022/04/20 10:29:41;;;;;;;1.92;1.45;;;;;;;;;;5035584;28;20064;-90
2022/04/20 10:32:22;;;;;;;3.65;2.08;;;;;;;;;;5033283;28;20045;-88
2022/04/20 10:34:50;;;;;;;5.03;2.17;;;;;;;;;;5035299;28;20084;-91
2022/04/20 10:37:20;;;;;;;3.33;1.80;;;;;;;;;;5035082;28;20085;-90
2022/04/20 10:39:47;;;;;;;4.20;2.00;;;;;;;;;;5035063;28;20148;-92
2022/04/20 10:42:15;;;;;;;4.45;2.08;;;;;;;;;;5033227;28;20421;-92
2022/04/20 10:44:49;;;;;;;4.45;2.10;;;;;;;;;;5033401;28;20136;-94
2022/04/20 10:47:22;;;;;;;2.20;2.00;;;;;;;;;;5034411;28;20460;-92
2022/04/20 10:49:52;;;;;;;2.00;1.90;;;;;;;;;;5034252;28;20100;-91
2022/04/20 10:52:30;;;;;;;3.55;2.05;;;;;;;;;;5033637;28;20057;-93
2022/04/20 10:54:57;;;;;;;2.20;2.00;;;;;;;;;;5034851;28;20057;-92
2022/04/20 10:57:35;;;;;;;5.50;2.17;;;;;;;;;;5033672;28;20045;-91
2022/04/20 11:00:20;;;;;;;4.50;1.70;;;;;;;;;;5033024;28;20075;-91
2022/04/20 11:02:48;;;;;;;4.28;1.98;;;;;;;;;;5033620;28;20076;-92
2022/04/20 11:05:16;;;;;;;2.45;2.22;;;;;;;;;;5036230;28;20132;-93
2022/04/20 11:08:02;;;;;;;1.98;1.80;;;;;;;;;;5035265;28;20080;-92
2022/04/20 11:10:29;;;;;;;7.30;2.30;;;;;;;;;;5035137;28;20470;-92
2022/04/20 11:19:05;;;;;;;5.75;2.67;;;;;;;;;;5034623;28;20167;-91
2022/04/20 11:21:33;;;;;;;2.88;2.08;;;;;;;;;;5033791;28;20140;-94
2022/04/20 11:24:03;;;;;;;8.57;5.80;;;;;;;;;;5034646;28;20076;-89
2022/04/20 11:26:33;;;;;;;4.85;3.47;;;;;;;;;;5033479;28;20125;-89
2022/04/20 11:29:03;;;;;;;8.07;4.18;;;;;;;;;;5034598;28;20140;-91
2022/04/20 11:31:42;;;;;;;20.30;13.55;;;;;;;;;;5033731;28;20075;-93
2022/04/20 11:34:10;;;;;;;34.78;25.08;;;;;;;;;;5033528;28;20420;-90
2022/04/20 11:36:40;;;;;;;2.65;2.45;;;;;;;;;;5034751;28;20054;-92
2022/04/20 11:39:09;;;;;;;3.03;2.50;;;;;;;;;;5033570;28;20057;-92
2022/04/20 11:41:36;;;;;;;4.10;2.40;;;;;;;;;;5034396;28;20049;-92
2022/04/20 11:44:04;;;;;;;3.55;2.38;;;;;;;;;;5032778;28;20517;-92
2022/04/20 11:46:32;;;;;;;7.18;2.60;;;;;;;;;;5032764;28;20549;-91
2022/04/20 11:49:02;;;;;;;7.25;2.70;;;;;;;;;;5034900;28;20413;-92
2022/04/20 11:51:32;;;;;;;4.00;2.58;;;;;;;;;;5034949;28;20077;-92
2022/04/20 11:53:59;;;;;;;4.00;2.10;;;;;;;;;;5033101;28;20137;-91
2022/04/20 11:56:37;;;;;;;2.42;2.10;;;;;;;;;;5032727;28;20137;-89
2022/04/20 11:59:06;;;;;;;4.30;2.30;;;;;;;;;;5031958;28;20089;-89
2022/04/20 12:01:35;;;;;;;3.30;2.63;;;;;;;;;;5032268;28;20076;-90
2022/04/20 12:04:10;;;;;;;2.45;2.10;;;;;;;;;;5031984;28;20049;-90
2022/04/20 12:06:37;;;;;;;2.83;2.60;;;;;;;;;;5033654;28;20199;-90
2022/04/20 12:09:07;;;;;;;6.53;2.60;;;;;;;;;;5035478;28;20545;-92
2022/04/20 12:11:34;;;;;;;3.80;2.25;;;;;;;;;;5035488;28;20046;-93
2022/04/20 12:14:01;;;;;;;3.13;2.42;;;;;;;;;;5036196;28;20052;-93
2022/04/20 12:16:33;;;;;;;4.40;2.72;;;;;;;;;;5037616;28;20053;-92
2022/04/20 12:19:01;;;;;;;4.70;2.45;;;;;;;;;;5036555;28;20053;-91
2022/04/20 12:21:44;;;;;;;4.07;2.85;;;;;;;;;;5036122;28;20080;-92
2022/04/20 12:24:12;;;;;;;7.43;2.65;;;;;;;;;;5037183;28;20140;-92
2022/04/20 12:26:41;;;;;;;5.03;3.03;;;;;;;;;;5036034;28;20052;-92
2022/04/20 12:29:09;;;;;;;3.15;2.85;;;;;;;;;;5036337;28;20053;-90
2022/04/20 12:31:41;;;;;;;4.50;3.22;;;;;;;;;;5037324;28;20052;-91
2022/04/20 12:34:09;;;;;;;2.97;2.70;;;;;;;;;;5034923;28;20445;-91
2022/04/20 12:36:56;;;;;;;3.33;2.72;;;;;;;;;;5035789;28;20081;-91
2022/04/20 12:39:30;;;;;;;4.32;3.17;;;;;;;;;;5036098;28;20465;-91
2022/04/20 12:41:58;;;;;;;6.13;3.38;;;;;;;;;;5036638;28;20049;-89
2022/04/20 12:44:41;;;;;;;6.15;3.13;;;;;;;;;;5036157;28;20085;-91
2022/04/20 12:47:10;;;;;;;6.05;3.53;;;;;;;;;;5035357;28;20053;-91
2022/04/20 12:49:41;;;;;;;3.67;2.90;;;;;;;;;;5036300;28;20143;-91
2022/04/20 12:52:12;;;;;;;5.07;3.10;;;;;;;;;;5035174;28;20112;-91
2022/04/20 12:54:40;;;;;;;11.30;3.20;;;;;;;;;;5035094;28;20486;-91
2022/04/20 13:03:04;;;;;;;8.85;3.17;;;;;;;;;;5036247;28;20099;-90
2022/04/20 13:05:32;;;;;;;2.55;2.35;;;;;;;;;;5035671;28;20053;-92
2022/04/20 13:08:00;;;;;;;4.30;3.03;;;;;;;;;;5036260;28;20405;-89
2022/04/20 13:10:29;;;;;;;4.75;2.65;;;;;;;;;;5040171;28;20120;-91
2022/04/20 13:12:57;;;;;;;6.15;2.63;;;;;;;;;;5043343;28;20050;-90
2022/04/20 13:15:25;;;;;;;4.55;2.90;;;;;;;;;;5035727;28;20541;-90
2022/04/20 13:17:52;;;;;;;4.88;3.05;;;;;;;;;;5034884;28;20056;-92
2022/04/20 13:20:23;;;;;;;3.70;2.80;;;;;;;;;;5035117;28;20045;-90
2022/04/20 13:22:50;;;;;;;4.88;2.53;;;;;;;;;;5034365;28;20498;-92
2022/04/20 13:28:03;;;;;;;7.40;2.80;;;;;;;;;;5035506;28;20050;-90
2022/04/20 13:30:35;;;;;;;5.13;2.85;;;;;;;;;;5034670;28;20050;-90
2022/04/20 13:33:07;;;;;;;3.95;2.88;;;;;;;;;;5034754;28;20073;-89
2022/04/20 13:35:35;;;;;;;3.80;2.92;;;;;;;;;;5034341;28;20136;-90
2022/04/20 13:38:02;;;;;;;4.15;2.40;;;;;;;;;;5033967;28;20522;-90
2022/04/20 13:40:30;;;;;;;4.00;2.40;;;;;;;;;;5034463;28;20045;-89
2022/04/20 13:42:58;;;;;;;3.00;2.70;;;;;;;;;;5035338;28;20049;-90
2022/04/20 13:45:25;;;;;;;3.92;2.50;;;;;;;;;;5036831;28;20132;-89
2022/04/20 13:47:52;;;;;;;7.35;3.20;;;;;;;;;;5034451;28;20064;-90
2022/04/20 13:50:19;;;;;;;2.83;2.35;;;;;;;;;;5034736;28;20056;-89
2022/04/20 13:52:47;;;;;;;9.15;2.53;;;;;;;;;;5034283;28;20518;-91
2022/04/20 13:55:15;;;;;;;7.35;2.45;;;;;;;;;;5034202;28;20045;-89
2022/04/20 13:57:42;;;;;;;3.03;2.53;;;;;;;;;;5035219;28;20053;-91
2022/04/20 14:00:12;;;;;;;5.47;3.20;;;;;;;;;;5033862;28;20148;-89
2022/04/20 14:02:43;;;;;;;7.63;3.00;;;;;;;;;;5034037;28;20056;-88
2022/04/20 14:05:11;;;;;;;8.10;3.17;;;;;;;;;;5034704;28;20111;-91
2022/04/20 14:07:40;;;;;;;7.05;3.22;;;;;;;;;;5033859;28;20083;-89
2022/04/20 14:10:08;;;;;;;6.88;3.00;;;;;;;;;;5034999;28;20143;-91
2022/04/20 14:12:36;;;;;;;3.92;2.72;;;;;;;;;;5033900;28;20140;-92
2022/04/20 14:15:04;;;;;;;4.60;3.58;;;;;;;;;;5033226;28;20052;-89
2022/04/20 14:17:32;;;;;;;6.65;2.90;;;;;;;;;;5033256;28;20403;-90
2022/04/20 14:20:00;;;;;;;7.18;3.30;;;;;;;;;;5033373;28;20413;-89
2022/04/20 14:22:28;;;;;;;6.35;3.20;;;;;;;;;;5034219;28;20084;-89
2022/04/20 14:32:09;;;;;;;3.35;3.05;;;;;;;;;;5034728;28;20605;-89
2022/04/20 14:33:20;;;;;;;5.75;2.63;;;;;;;;;;5034244;28;20045;-89
2022/04/20 14:35:47;;;;;;;5.85;3.22;;;;;;;;;;5033070;28;20091;-87
2022/04/20 14:38:14;;;;;;;6.15;3.38;;;;;;;;;;5034823;28;20156;-89
2022/04/20 14:40:41;;;;;;;4.25;2.80;;;;;;;;;;5034652;28;20132;-88
2022/04/20 14:43:08;;;;;;;4.10;2.95;;;;;;;;;;5034458;28;20091;-89
2022/04/20 14:45:36;;;;;;;5.32;3.00;;;;;;;;;;5033428;28;20485;-90
2022/04/20 14:48:03;;;;;;;4.95;2.97;;;;;;;;;;5033553;28;20526;-89
2022/04/20 14:50:30;;;;;;;2.90;2.60;;;;;;;;;;5033290;28;20136;-89
2022/04/20 14:52:58;;;;;;;6.85;3.38;;;;;;;;;;5034120;28;20049;-89
2022/04/20 14:55:25;;;;;;;5.03;3.20;;;;;;;;;;5032007;28;20467;-89
2022/04/20 14:57:58;;;;;;;5.57;4.03;;;;;;;;;;5033228;28;20073;-88
2022/04/20 15:00:26;;;;;;;5.43;3.50;;;;;;;;;;5036640;28;20093;-89
2022/04/20 15:02:53;;;;;;;5.75;4.00;;;;;;;;;;5032815;28;20136;-89
2022/04/20 15:05:20;;;;;;;6.75;4.40;;;;;;;;;;5032391;28;20111;-89
2022/04/20 15:07:48;;;;;;;61.22;46.45;;;;;;;;;;5033953;28;20051;-90
2022/04/20 15:10:16;;;;;;;15.35;10.75;;;;;;;;;;5034098;28;20332;-89
2022/04/20 15:12:43;;;;;;;5.57;4.30;;;;;;;;;;5032619;28;20132;-90
2022/04/20 15:15:10;;;;;;;5.35;3.55;;;;;;;;;;5033615;28;20057;-90
2022/04/20 15:17:37;;;;;;;6.95;5.22;;;;;;;;;;5032524;28;20511;-88
2022/04/20 15:20:06;;;;;;;5.47;4.03;;;;;;;;;;5032217;28;20132;-89
2022/04/20 15:22:33;;;;;;;9.00;6.03;;;;;;;;;;5032742;28;20179;-89
2022/04/20 15:25:01;;;;;;;6.40;4.85;;;;;;;;;;5035209;28;20491;-91
2022/04/20 15:27:29;;;;;;;9.98;4.82;;;;;;;;;;5034013;28;20055;-90
2022/04/20 15:29:56;;;;;;;10.02;5.15;;;;;;;;;;5033472;28;20052;-90
2022/04/20 15:32:25;;;;;;;13.50;6.13;;;;;;;;;;5034018;28;20099;-90